Angleton, Texas
Current Conditions -  °F | °C
As of 9:53 PM on Friday 28 Nov 2014 (Local Time) from KLBX Reporting Station
Clear Clear  
Wind Chill: 56°   Ceiling: Unl
Heat Index: 56°   Visibility: 10mi
Dew Point: 55°   Wind: 8mph
Humidity: 97%   Direction: 170°S
Pressure: 30.16"   Gusts: NA
Location:  29.16°N, 95.43°W
Report Text: KLBX 290353Z AUTO 17007KT 10SM CLR 13/13 A3016 RMK AO2 SLP212 T01330128
Loading
Personal Weather Stations






























Interactive Weather Map New forecast layout! Learn more

10-Day Weather Forecast

Advertisements
Track Severe Weather on mobile